Time;durP1;ratioP1;P1;durP2;ratioP2;P2;SDS_P1;SDS_P2;PMS_P1;PMS_P2;Temp;Humidity;BMP_temperature;BMP_pressure;BME280_temperature;BME280_humidity;BME280_pressure;Samples;Min_cycle;Max_cycle;Signal;HPM_P1;HPM_P2
2023/08/16 05:03:38;;;;;;;9.68;7.30;;;;;;;-148.15;100.00;61821.78;5176717;23;20065;-93
2023/08/16 05:06:05;;;;;;;14.97;7.27;;;;;;;-148.15;100.00;61821.78;4994784;28;20099;-89
2023/08/16 05:08:31;;;;;;;8.95;7.47;;;;;;;-148.15;100.00;61821.78;4991243;28;20474;-90
2023/08/16 05:10:57;;;;;;;8.57;6.73;;;;;;;-148.15;100.00;61821.78;4993298;28;20030;-90
2023/08/16 05:13:23;;;;;;;11.20;7.00;;;;;;;-148.15;100.00;61821.78;4992223;28;20108;-89
2023/08/16 05:15:48;;;;;;;10.85;7.00;;;;;;;-148.15;100.00;61821.78;4992700;28;20490;-89
2023/08/16 05:18:14;;;;;;;7.63;6.40;;;;;;;-148.15;100.00;61821.78;4984255;28;20042;-90
2023/08/16 05:20:39;;;;;;;8.27;6.60;;;;;;;-148.15;100.00;61821.78;4990557;28;20031;-90
2023/08/16 05:23:05;;;;;;;9.07;6.85;;;;;;;-148.15;100.00;61821.78;4982562;28;20036;-90
2023/08/16 05:25:30;;;;;;;9.47;6.70;;;;;;;-148.15;100.00;61821.78;5007711;28;20030;-88
2023/08/16 05:27:58;;;;;;;10.80;6.57;;;;;;;-148.15;100.00;61821.78;4990658;28;20031;-88
2023/08/16 05:30:27;;;;;;;7.80;6.47;;;;;;;-148.15;100.00;61821.78;4999662;28;20069;-89
2023/08/16 05:32:56;;;;;;;10.35;7.13;;;;;;;-148.15;100.00;61821.78;4990122;28;20044;-91
2023/08/16 05:35:22;;;;;;;12.27;6.75;;;;;;;-148.15;100.00;61821.78;4984271;28;20056;-90
2023/08/16 05:37:48;;;;;;;7.90;6.80;;;;;;;-148.15;100.00;61821.78;4976547;28;20471;-89
2023/08/16 05:40:13;;;;;;;10.80;6.07;;;;;;;-148.15;100.00;61821.78;4973208;28;20107;-88
2023/08/16 05:42:39;;;;;;;10.07;6.20;;;;;;;-148.15;100.00;61821.78;4971583;28;20311;-89
2023/08/16 05:45:06;;;;;;;10.63;6.40;;;;;;;-148.15;100.00;61821.78;4990499;28;20038;-88
2023/08/16 05:47:31;;;;;;;13.18;6.47;;;;;;;-148.15;100.00;61821.78;4988843;28;20125;-89
2023/08/16 05:49:57;;;;;;;9.67;5.87;;;;;;;-148.15;100.00;61821.78;4970508;28;20105;-88
2023/08/16 05:52:23;;;;;;;8.93;5.40;;;;;;;-148.15;100.00;61821.78;4986303;28;20465;-88
2023/08/16 05:54:48;;;;;;;7.47;5.63;;;;;;;-148.15;100.00;61821.78;4991326;28;20034;-88
2023/08/16 05:57:13;;;;;;;6.10;5.05;;;;;;;-148.15;100.00;61821.78;4989736;28;20034;-88
2023/08/16 05:59:40;;;;;;;10.37;5.40;;;;;;;-148.15;100.00;61821.78;4971939;28;20364;-88
2023/08/16 06:02:06;;;;;;;5.75;5.15;;;;;;;-148.15;100.00;61821.78;4981655;28;20102;-88
2023/08/16 06:04:32;;;;;;;8.77;4.82;;;;;;;-148.15;100.00;61821.78;4989767;28;20030;-88
2023/08/16 06:06:58;;;;;;;7.03;4.63;;;;;;;-148.15;100.00;61821.78;4978095;28;20038;-88
2023/08/16 06:09:23;;;;;;;6.22;4.50;;;;;;;-148.15;100.00;61821.78;4970370;28;20041;-88
2023/08/16 06:11:49;;;;;;;6.27;4.67;;;;;;;-148.15;100.00;61821.78;4978693;28;20109;-88
2023/08/16 06:14:14;;;;;;;6.57;4.80;;;;;;;-148.15;100.00;61821.78;4991953;28;20049;-88
2023/08/16 06:16:39;;;;;;;6.30;5.00;;;;;;;-148.15;100.00;61821.78;4975975;28;20050;-88
2023/08/16 06:19:05;;;;;;;7.82;4.63;;;;;;;-148.15;100.00;61821.78;4972343;28;20030;-88
2023/08/16 06:21:30;;;;;;;9.97;5.40;;;;;;;-148.15;100.00;61821.78;4960960;28;20027;-88
2023/08/16 06:23:56;;;;;;;11.27;5.17;;;;;;;-148.15;100.00;61821.78;4972177;28;20030;-88
2023/08/16 06:26:22;;;;;;;13.85;5.88;;;;;;;-148.15;100.00;61821.78;4975141;28;20548;-90
2023/08/16 06:28:48;;;;;;;11.32;5.55;;;;;;;-148.15;100.00;61821.78;4991201;28;20103;-89
2023/08/16 06:31:14;;;;;;;10.87;5.00;;;;;;;-148.15;100.00;61821.78;4951316;28;20076;-90
2023/08/16 06:33:39;;;;;;;7.10;4.83;;;;;;;-148.15;100.00;61821.78;4968956;28;20334;-88
2023/08/16 06:36:04;;;;;;;10.20;4.97;;;;;;;-148.15;100.00;61821.78;4972189;28;20390;-89
2023/08/16 06:38:30;;;;;;;9.23;5.32;;;;;;;-148.15;100.00;61821.78;4971777;28;20037;-88
2023/08/16 06:40:55;;;;;;;6.80;5.17;;;;;;;-148.15;100.00;61821.78;4972773;28;20034;-88
2023/08/16 06:43:20;;;;;;;6.77;4.60;;;;;;;-148.15;100.00;61821.78;4983298;28;20031;-89
2023/08/16 06:45:46;;;;;;;14.60;4.80;;;;;;;-148.15;100.00;61821.78;4991917;28;20187;-88
2023/08/16 06:48:11;;;;;;;8.60;4.67;;;;;;;-148.15;100.00;61821.78;4971319;28;20053;-88
2023/08/16 06:50:37;;;;;;;6.65;3.78;;;;;;;-148.15;100.00;61821.78;4974585;28;20390;-88
2023/08/16 06:53:03;;;;;;;6.73;3.63;;;;;;;-148.15;100.00;61821.78;4969002;28;20023;-87
2023/08/16 06:55:28;;;;;;;6.55;3.80;;;;;;;-148.15;100.00;61821.78;4972466;28;20468;-89
2023/08/16 06:57:54;;;;;;;7.97;3.67;;;;;;;-148.15;100.00;61821.78;4970818;28;20038;-88
2023/08/16 07:00:19;;;;;;;7.30;3.80;;;;;;;-148.15;100.00;61821.78;4990527;28;20080;-89
2023/08/16 07:02:44;;;;;;;7.53;3.50;;;;;;;-148.15;100.00;61821.78;4961980;28;20107;-88
2023/08/16 07:05:11;;;;;;;5.07;3.20;;;;;;;-148.15;100.00;61821.78;4983392;28;20099;-90
2023/08/16 07:07:36;;;;;;;9.07;3.20;;;;;;;-148.15;100.00;61821.78;4990891;28;20418;-91
2023/08/16 07:10:02;;;;;;;3.87;3.03;;;;;;;-148.15;100.00;61821.78;4991013;28;20031;-92
2023/08/16 07:12:27;;;;;;;3.53;3.17;;;;;;;-148.15;100.00;61821.78;4991211;28;20032;-92
2023/08/16 07:14:53;;;;;;;6.87;3.80;;;;;;;-148.15;100.00;61821.78;4989053;28;21051;-92
2023/08/16 07:17:18;;;;;;;8.23;4.00;;;;;;;-148.15;100.00;61821.78;4991124;28;20053;-92
2023/08/16 07:19:48;;;;;;;6.20;3.60;;;;;;;-148.15;100.00;61821.78;4988744;28;20501;-92
2023/08/16 07:22:13;;;;;;;5.68;3.60;;;;;;;-148.15;100.00;61821.78;4978764;28;20502;-91
2023/08/16 07:24:39;;;;;;;4.53;3.13;;;;;;;-148.15;100.00;61821.78;4989221;28;20034;-91
2023/08/16 07:27:04;;;;;;;5.80;3.30;;;;;;;-148.15;100.00;61821.78;4989472;28;20335;-91
2023/08/16 07:29:29;;;;;;;3.87;3.13;;;;;;;-148.15;100.00;61821.78;4994552;28;20030;-90
2023/08/16 07:31:55;;;;;;;6.63;3.60;;;;;;;-148.15;100.00;61821.78;4994370;28;20105;-91
2023/08/16 07:34:20;;;;;;;5.55;3.10;;;;;;;-148.15;100.00;61821.78;4993564;28;20037;-90
2023/08/16 07:36:45;;;;;;;5.80;3.27;;;;;;;-148.15;100.00;61821.78;4993649;28;20397;-90
2023/08/16 07:39:11;;;;;;;3.30;2.77;;;;;;;-148.15;100.00;61821.78;4994725;28;20030;-91
2023/08/16 07:41:36;;;;;;;7.17;2.87;;;;;;;-148.15;100.00;61821.78;4991337;28;20023;-92
2023/08/16 07:44:02;;;;;;;8.20;3.47;;;;;;;-148.15;100.00;61821.78;4991888;28;20034;-91
2023/08/16 07:46:27;;;;;;;4.33;2.90;;;;;;;-148.15;100.00;61821.78;4978505;28;20022;-91
2023/08/16 07:48:52;;;;;;;7.80;3.50;;;;;;;-148.15;100.00;61821.78;4995369;28;20820;-92
2023/08/16 07:51:18;;;;;;;6.67;3.50;;;;;;;-148.15;100.00;61821.78;4995316;28;20018;-91
2023/08/16 07:53:43;;;;;;;5.47;3.20;;;;;;;-148.15;100.00;61821.78;4992071;28;20390;-91
2023/08/16 07:56:08;;;;;;;5.67;3.20;;;;;;;-148.15;100.00;61821.78;4992188;28;20285;-91
2023/08/16 07:58:34;;;;;;;5.47;2.90;;;;;;;-148.15;100.00;61821.78;4976402;28;20023;-91
2023/08/16 08:01:00;;;;;;;4.73;2.83;;;;;;;-148.15;100.00;61821.78;5003964;28;20023;-91
2023/08/16 08:03:25;;;;;;;8.43;3.17;;;;;;;-148.15;100.00;61821.78;4983790;28;20065;-91
2023/08/16 08:05:51;;;;;;;5.90;3.10;;;;;;;-148.15;100.00;61821.78;4994459;28;20040;-91
2023/08/16 08:08:16;;;;;;;7.05;3.13;;;;;;;-148.15;100.00;61821.78;4994696;28;20078;-92
2023/08/16 08:10:45;;;;;;;7.53;3.57;;;;;;;-148.15;100.00;61821.78;5000346;28;20035;-91
2023/08/16 08:13:11;;;;;;;5.63;3.13;;;;;;;-148.15;100.00;61821.78;4991396;28;20070;-91
2023/08/16 08:15:36;;;;;;;6.18;2.90;;;;;;;-148.15;100.00;61821.78;4987723;28;20030;-91
2023/08/16 08:18:02;;;;;;;4.13;3.23;;;;;;;-148.15;100.00;61821.78;4991521;28;20104;-91
2023/08/16 08:20:27;;;;;;;6.43;2.70;;;;;;;-148.15;100.00;61821.78;4991081;28;20043;-92
2023/08/16 08:22:53;;;;;;;5.55;2.80;;;;;;;-148.15;100.00;61821.78;4990977;28;20037;-91
2023/08/16 08:25:18;;;;;;;6.30;2.77;;;;;;;-148.15;100.00;61821.78;4988884;28;20038;-91
2023/08/16 08:27:44;;;;;;;4.43;2.43;;;;;;;-148.15;100.00;61821.78;4976062;28;20130;-91
2023/08/16 08:30:09;;;;;;;6.63;2.73;;;;;;;-148.15;100.00;61821.78;4977096;28;20049;-92
2023/08/16 08:32:35;;;;;;;5.65;2.85;;;;;;;-148.15;100.00;61821.78;4994793;28;20117;-91
2023/08/16 08:35:02;;;;;;;5.83;2.60;;;;;;;-148.15;100.00;61821.78;4993750;28;20030;-91
2023/08/16 08:37:27;;;;;;;5.47;2.67;;;;;;;-148.15;100.00;61821.78;4994539;28;20602;-91
2023/08/16 08:39:53;;;;;;;5.30;2.70;;;;;;;-148.15;100.00;61821.78;4994001;28;20042;-91
2023/08/16 08:42:21;;;;;;;6.15;2.75;;;;;;;-148.15;100.00;61821.78;4997044;28;20477;-92
2023/08/16 08:44:46;;;;;;;7.80;3.10;;;;;;;-148.15;100.00;61821.78;4984315;28;20498;-91
2023/08/16 08:47:12;;;;;;;7.57;3.17;;;;;;;-148.15;100.00;61821.78;4974698;28;20035;-92
2023/08/16 08:49:39;;;;;;;4.20;3.10;;;;;;;-148.15;100.00;61821.78;4974281;28;20027;-91
2023/08/16 08:52:04;;;;;;;5.53;2.80;;;;;;;-148.15;100.00;61821.78;4974743;28;20034;-92
2023/08/16 08:54:33;;;;;;;7.53;3.10;;;;;;;-148.15;100.00;61821.78;4980023;28;20645;-91
2023/08/16 08:57:05;;;;;;;7.22;3.20;;;;;;;-148.15;100.00;61821.78;4999835;28;20030;-91
2023/08/16 08:59:33;;;;;;;9.05;3.70;;;;;;;-148.15;100.00;61821.78;4995609;28;20057;-91
2023/08/16 09:01:58;;;;;;;5.93;3.60;;;;;;;-148.15;100.00;61821.78;4993664;28;20029;-91
2023/08/16 09:04:26;;;;;;;5.70;2.93;;;;;;;-148.15;100.00;61821.78;4992399;28;20027;-92
2023/08/16 09:06:51;;;;;;;8.07;3.50;;;;;;;-148.15;100.00;61821.78;4993044;28;20037;-91
2023/08/16 09:09:17;;;;;;;5.78;2.97;;;;;;;-148.15;100.00;61821.78;4993466;28;20102;-92
2023/08/16 09:11:42;;;;;;;6.27;3.57;;;;;;;-148.15;100.00;61821.78;4993920;28;20019;-91
2023/08/16 09:14:09;;;;;;;8.07;3.20;;;;;;;-148.15;100.00;61821.78;4993159;28;20727;-92
2023/08/16 09:16:34;;;;;;;5.97;3.70;;;;;;;-148.15;100.00;61821.78;4993692;28;20277;-92
2023/08/16 09:19:00;;;;;;;5.18;3.70;;;;;;;-148.15;100.00;61821.78;4993536;28;20029;-92
2023/08/16 09:21:28;;;;;;;6.63;3.50;;;;;;;-148.15;100.00;61821.78;4981008;28;20014;-92
2023/08/16 09:23:58;;;;;;;8.87;3.63;;;;;;;-148.15;100.00;61821.78;5007297;28;20296;-91
2023/08/16 09:26:27;;;;;;;6.50;3.92;;;;;;;-148.15;100.00;61821.78;4954923;29;20046;-92
2023/08/16 09:28:59;;;;;;;5.32;3.53;;;;;;;-148.15;100.00;61821.78;4965758;29;20023;-91
2023/08/16 09:31:29;;;;;;;7.53;3.33;;;;;;;-148.15;100.00;61821.78;4956221;29;20027;-91
2023/08/16 09:33:55;;;;;;;5.53;3.10;;;;;;;-148.15;100.00;61821.78;4954428;29;20086;-91
2023/08/16 09:36:20;;;;;;;7.47;3.20;;;;;;;-148.15;100.00;61821.78;4991778;28;20027;-91
2023/08/16 09:38:47;;;;;;;13.07;4.20;;;;;;;-148.15;100.00;61821.78;4991851;28;20557;-91
2023/08/16 09:41:18;;;;;;;6.50;3.58;;;;;;;-148.15;100.00;61821.78;4993122;28;20509;-92
2023/08/16 09:43:44;;;;;;;16.15;4.22;;;;;;;-148.15;100.00;61821.78;4975686;28;20105;-92
2023/08/16 09:46:10;;;;;;;9.07;4.20;;;;;;;-148.15;100.00;61821.78;4988195;28;20038;-91
2023/08/16 09:48:35;;;;;;;4.22;3.15;;;;;;;-148.15;100.00;61821.78;4955485;28;20498;-92
2023/08/16 09:51:03;;;;;;;5.33;3.60;;;;;;;-148.15;100.00;61821.78;4954900;28;20033;-91
2023/08/16 09:53:30;;;;;;;6.35;4.05;;;;;;;-148.15;100.00;61821.78;4955269;29;20035;-91
2023/08/16 09:55:59;;;;;;;6.95;4.00;;;;;;;-148.15;100.00;61821.78;4984553;28;20034;-92
2023/08/16 09:58:27;;;;;;;6.70;4.03;;;;;;;-148.15;100.00;61821.78;4992757;28;20030;-92
2023/08/16 10:00:54;;;;;;;6.60;3.90;;;;;;;-148.15;100.00;61821.78;4992934;28;20022;-92
2023/08/16 10:03:20;;;;;;;6.83;4.17;;;;;;;-148.15;100.00;61821.78;4992335;28;20034;-91
2023/08/16 10:05:46;;;;;;;9.47;4.27;;;;;;;-148.15;100.00;61821.78;4991574;28;20404;-93
2023/08/16 10:08:12;;;;;;;6.28;3.83;;;;;;;-148.15;100.00;61821.78;4974930;28;20046;-92
2023/08/16 10:10:39;;;;;;;6.68;4.00;;;;;;;-148.15;100.00;61821.78;4992821;28;20034;-93
2023/08/16 10:13:07;;;;;;;5.73;4.07;;;;;;;-148.15;100.00;61821.78;4992815;28;20048;-92
2023/08/16 10:15:33;;;;;;;5.80;3.87;;;;;;;-148.15;100.00;61821.78;4991757;28;20293;-92
2023/08/16 10:18:00;;;;;;;7.55;4.15;;;;;;;-148.15;100.00;61821.78;4992019;28;20030;-92
2023/08/16 10:20:32;;;;;;;5.07;3.85;;;;;;;-148.15;100.00;61821.78;4992440;28;20089;-92
2023/08/16 10:23:03;;;;;;;6.55;3.95;;;;;;;-148.15;100.00;61821.78;4992116;28;20030;-92
2023/08/16 10:25:48;;;;;;;7.95;3.58;;;;;;;-148.15;100.00;61821.78;4991247;28;20371;-91
2023/08/16 10:28:19;;;;;;;8.70;4.20;;;;;;;-148.15;100.00;61821.78;4992402;28;20026;-92
2023/08/16 10:30:47;;;;;;;7.30;3.35;;;;;;;-148.15;100.00;61821.78;4992325;28;20109;-93
2023/08/16 10:33:19;;;;;;;7.55;3.50;;;;;;;-148.15;100.00;61821.78;4992933;28;20054;-92
2023/08/16 10:35:48;;;;;;;8.20;3.80;;;;;;;-148.15;100.00;61821.78;4989663;28;20069;-93
2023/08/16 10:38:13;;;;;;;7.83;4.00;;;;;;;-148.15;100.00;61821.78;4992269;28;20840;-92
2023/08/16 10:40:38;;;;;;;5.53;3.53;;;;;;;-148.15;100.00;61821.78;4994950;28;20033;-93
2023/08/16 10:43:06;;;;;;;10.37;3.80;;;;;;;-148.15;100.00;61821.78;4997225;28;20068;-92
2023/08/16 10:45:36;;;;;;;9.70;3.90;;;;;;;-148.15;100.00;61821.78;4979302;28;20114;-92
2023/08/16 10:48:15;;;;;;;8.90;3.80;;;;;;;-148.15;100.00;61821.78;4974074;28;20442;-91
2023/08/16 10:50:41;;;;;;;5.63;3.90;;;;;;;-148.15;100.00;61821.78;4954591;28;20278;-92
2023/08/16 10:53:07;;;;;;;8.65;3.97;;;;;;;-148.15;100.00;61821.78;4958817;28;20056;-91
2023/08/16 10:55:33;;;;;;;5.15;4.53;;;;;;;-148.15;100.00;61821.78;4976236;28;20034;-93
2023/08/16 10:57:58;;;;;;;8.48;4.45;;;;;;;-148.15;100.00;61821.78;4999026;28;20026;-92
2023/08/16 11:00:32;;;;;;;6.07;4.13;;;;;;;-148.15;100.00;61821.78;4997134;28;20441;-93
2023/08/16 11:03:04;;;;;;;7.80;4.68;;;;;;;-148.15;100.00;61821.78;4996719;28;20041;-92
2023/08/16 11:05:31;;;;;;;9.27;4.70;;;;;;;-148.15;100.00;61821.78;4978632;28;20078;-92
2023/08/16 11:07:58;;;;;;;9.50;4.18;;;;;;;-148.15;100.00;61821.78;4975403;28;20053;-92
2023/08/16 11:10:35;;;;;;;9.35;4.03;;;;;;;-148.15;100.00;61821.78;4972360;28;20510;-92
2023/08/16 11:13:02;;;;;;;7.60;3.75;;;;;;;-148.15;100.00;61821.78;4972441;28;20030;-92
2023/08/16 11:15:28;;;;;;;5.67;3.97;;;;;;;-148.15;100.00;61821.78;4980155;28;20501;-92
2023/08/16 11:17:55;;;;;;;9.47;4.13;;;;;;;-148.15;100.00;61821.78;4991219;28;20289;-92
2023/08/16 11:20:21;;;;;;;5.07;3.85;;;;;;;-148.15;100.00;61821.78;4991530;28;20030;-93
2023/08/16 11:22:47;;;;;;;6.63;4.00;;;;;;;-148.15;100.00;61821.78;4991563;28;20014;-92
2023/08/16 11:25:12;;;;;;;12.18;4.45;;;;;;;-148.15;100.00;61821.78;4968158;28;20030;-92
2023/08/16 11:27:38;;;;;;;8.10;3.83;;;;;;;-148.15;100.00;61821.78;4935031;28;20049;-92
2023/08/16 11:30:04;;;;;;;8.27;4.18;;;;;;;-148.15;100.00;61821.78;4935153;29;20027;-92
2023/08/16 11:32:33;;;;;;;6.40;4.10;;;;;;;-148.15;100.00;61821.78;4952900;28;20038;-93
2023/08/16 11:34:58;;;;;;;5.90;3.92;;;;;;;-148.15;100.00;61821.78;4943173;28;20036;-92
2023/08/16 11:37:24;;;;;;;7.53;3.90;;;;;;;-148.15;100.00;61821.78;4991107;28;20136;-92
2023/08/16 11:40:04;;;;;;;4.33;3.70;;;;;;;-148.15;100.00;61821.78;4990935;28;20477;-92
2023/08/16 11:42:30;;;;;;;6.68;3.80;;;;;;;-148.15;100.00;61821.78;4991617;28;20026;-92
2023/08/16 11:44:56;;;;;;;8.10;3.97;;;;;;;-148.15;100.00;61821.78;4989142;28;20046;-92
2023/08/16 11:47:22;;;;;;;8.50;4.50;;;;;;;-148.15;100.00;61821.78;4990735;28;20022;-92
2023/08/16 11:49:49;;;;;;;6.90;4.00;;;;;;;-148.15;100.00;61821.78;4990693;28;20022;-92
2023/08/16 11:52:20;;;;;;;9.00;4.50;;;;;;;-148.15;100.00;61821.78;4991270;28;20277;-92
2023/08/16 11:54:46;;;;;;;7.72;4.10;;;;;;;-148.15;100.00;61821.78;4989510;28;20466;-92
2023/08/16 11:57:16;;;;;;;5.55;3.67;;;;;;;-148.15;100.00;61821.78;4990731;28;20022;-93
2023/08/16 11:59:42;;;;;;;7.77;3.93;;;;;;;-148.15;100.00;61821.78;4961143;28;20044;-92
2023/08/16 12:02:07;;;;;;;7.13;4.10;;;;;;;-148.15;100.00;61821.78;5004015;28;20023;-92
2023/08/16 12:04:33;;;;;;;10.77;3.87;;;;;;;-148.15;100.00;61821.78;4990034;28;20027;-92
2023/08/16 12:06:58;;;;;;;6.33;3.97;;;;;;;-148.15;100.00;61821.78;5002585;28;20038;-93
2023/08/16 12:09:23;;;;;;;5.00;3.25;;;;;;;-148.15;100.00;61821.78;5001705;28;20186;-92
2023/08/16 12:11:51;;;;;;;6.27;3.50;;;;;;;-148.15;100.00;61821.78;4991090;28;20478;-92
2023/08/16 12:14:16;;;;;;;6.00;3.80;;;;;;;-148.15;100.00;61821.78;4995429;28;20027;-93
2023/08/16 12:16:42;;;;;;;8.80;3.83;;;;;;;-148.15;100.00;61821.78;5004306;28;20062;-91
2023/08/16 12:19:07;;;;;;;6.97;4.10;;;;;;;-148.15;100.00;61821.78;5006815;28;20034;-93
2023/08/16 12:21:32;;;;;;;6.20;3.20;;;;;;;-148.15;100.00;61821.78;5003176;28;20038;-94
2023/08/16 12:23:58;;;;;;;5.38;3.60;;;;;;;-148.15;100.00;61821.78;5000796;28;20018;-92
2023/08/16 12:26:23;;;;;;;6.97;3.67;;;;;;;-148.15;100.00;61821.78;4990598;28;20117;-93
2023/08/16 12:28:48;;;;;;;7.10;3.30;;;;;;;-148.15;100.00;61821.78;4990801;28;20367;-92
2023/08/16 12:31:14;;;;;;;6.87;3.77;;;;;;;-148.15;100.00;61821.78;4992394;28;20030;-93
2023/08/16 12:33:40;;;;;;;7.33;3.33;;;;;;;-148.15;100.00;61821.78;5002774;28;20034;-93
2023/08/16 12:36:06;;;;;;;4.18;3.00;;;;;;;-148.15;100.00;61821.78;4998130;28;20033;-92
2023/08/16 12:38:32;;;;;;;5.82;3.47;;;;;;;-148.15;100.00;61821.78;4993269;28;20027;-92
2023/08/16 12:40:57;;;;;;;6.37;3.53;;;;;;;-148.15;100.00;61821.78;4994711;28;20031;-92
2023/08/16 12:43:22;;;;;;;3.33;2.73;;;;;;;-148.15;100.00;61821.78;4993754;28;20098;-93
2023/08/16 12:45:48;;;;;;;6.03;3.42;;;;;;;-148.15;100.00;61821.78;4986204;28;20483;-93
2023/08/16 12:48:14;;;;;;;4.80;2.90;;;;;;;-148.15;100.00;61821.78;4975349;28;20438;-92
2023/08/16 12:50:39;;;;;;;4.90;2.85;;;;;;;-148.15;100.00;61821.78;4976101;28;20098;-92
2023/08/16 12:53:05;;;;;;;6.57;2.87;;;;;;;-148.15;100.00;61821.78;4981188;28;20030;-92
2023/08/16 12:55:30;;;;;;;4.97;3.13;;;;;;;-148.15;100.00;61821.78;4979464;28;20057;-93
2023/08/16 12:57:56;;;;;;;4.80;3.00;;;;;;;-148.15;100.00;61821.78;4975508;28;20042;-92
2023/08/16 13:00:22;;;;;;;3.92;2.75;;;;;;;-148.15;100.00;61821.78;4973094;28;20113;-92
2023/08/16 13:02:48;;;;;;;6.00;2.70;;;;;;;-148.15;100.00;61821.78;4973631;28;20408;-92
2023/08/16 13:05:13;;;;;;;5.37;2.90;;;;;;;-148.15;100.00;61821.78;4974259;28;20026;-92
2023/08/16 13:07:38;;;;;;;3.22;2.85;;;;;;;-148.15;100.00;61821.78;4961430;28;20530;-92
2023/08/16 13:10:05;;;;;;;5.80;3.60;;;;;;;-148.15;100.00;61821.78;4952249;28;20036;-93
2023/08/16 13:12:31;;;;;;;5.85;3.00;;;;;;;-148.15;100.00;61821.78;4951564;28;20032;-93
2023/08/16 13:14:57;;;;;;;3.83;3.17;;;;;;;-148.15;100.00;61821.78;4961681;28;20034;-93
2023/08/16 13:17:22;;;;;;;7.73;3.13;;;;;;;-148.15;100.00;61821.78;4993577;28;20352;-93
2023/08/16 13:19:47;;;;;;;4.67;2.80;;;;;;;-148.15;100.00;61821.78;5006088;28;20069;-93
2023/08/16 13:22:13;;;;;;;5.03;3.03;;;;;;;-148.15;100.00;61821.78;5002692;28;20423;-93
2023/08/16 13:24:39;;;;;;;6.47;3.93;;;;;;;-148.15;100.00;61821.78;4976635;28;20064;-92
2023/08/16 13:27:04;;;;;;;6.88;3.40;;;;;;;-148.15;100.00;61821.78;4992056;28;20200;-92
2023/08/16 13:29:30;;;;;;;3.70;3.30;;;;;;;-148.15;100.00;61821.78;4958237;28;20034;-92
2023/08/16 13:31:56;;;;;;;4.40;2.90;;;;;;;-148.15;100.00;61821.78;4974321;28;20038;-93
2023/08/16 13:34:22;;;;;;;9.13;2.93;;;;;;;-148.15;100.00;61821.78;4974400;28;20027;-92
2023/08/16 13:36:47;;;;;;;4.22;2.78;;;;;;;-148.15;100.00;61821.78;4989700;28;20061;-92
2023/08/16 13:39:12;;;;;;;6.80;2.80;;;;;;;-148.15;100.00;61821.78;4985504;28;20041;-92
2023/08/16 13:41:38;;;;;;;5.50;3.00;;;;;;;-148.15;100.00;61821.78;4954559;29;20023;-93
2023/08/16 13:44:03;;;;;;;5.17;2.57;;;;;;;-148.15;100.00;61821.78;4955111;28;20031;-92
2023/08/16 13:46:29;;;;;;;6.25;2.63;;;;;;;-148.15;100.00;61821.78;4982958;28;20034;-93
2023/08/16 13:48:55;;;;;;;3.47;2.80;;;;;;;-148.15;100.00;61821.78;4994083;28;20030;-93
2023/08/16 13:51:20;;;;;;;7.10;2.33;;;;;;;-148.15;100.00;61821.78;4993327;28;20101;-93
2023/08/16 13:53:46;;;;;;;3.83;2.90;;;;;;;-148.15;100.00;61821.78;4976252;28;20034;-92
2023/08/16 13:56:11;;;;;;;4.37;2.80;;;;;;;-148.15;100.00;61821.78;4992287;28;20038;-93
2023/08/16 13:58:36;;;;;;;5.53;2.57;;;;;;;-148.15;100.00;61821.78;4993325;28;20046;-94
2023/08/16 14:01:02;;;;;;;5.47;2.70;;;;;;;-148.15;100.00;61821.78;4993397;28;20553;-93
2023/08/16 14:03:27;;;;;;;5.60;3.23;;;;;;;-148.15;100.00;61821.78;4976331;28;20801;-93
2023/08/16 14:05:57;;;;;;;5.20;3.10;;;;;;;-148.15;100.00;61821.78;4991749;28;20030;-94
2023/08/16 14:08:23;;;;;;;5.90;3.00;;;;;;;-148.15;100.00;61821.78;4993793;28;20026;-93
2023/08/16 14:10:53;;;;;;;7.65;3.50;;;;;;;-148.15;100.00;61821.78;4975522;28;20022;-94
2023/08/16 14:13:27;;;;;;;4.82;3.00;;;;;;;-148.15;100.00;61821.78;4993327;28;20053;-93
2023/08/16 14:16:00;;;;;;;4.40;2.90;;;;;;;-148.15;100.00;61821.78;4991117;28;20560;-93
2023/08/16 14:18:25;;;;;;;4.60;2.70;;;;;;;-148.15;100.00;61821.78;4993402;28;20117;-94
2023/08/16 14:20:51;;;;;;;5.45;3.10;;;;;;;-148.15;100.00;61821.78;4992628;28;20061;-93
2023/08/16 14:23:16;;;;;;;3.73;2.20;;;;;;;-148.15;100.00;61821.78;4993244;28;20076;-93
2023/08/16 14:25:49;;;;;;;4.37;2.60;;;;;;;-148.15;100.00;61821.78;4976494;28;20110;-94
2023/08/16 14:28:15;;;;;;;4.97;2.83;;;;;;;-148.15;100.00;61821.78;4954409;28;20061;-93
2023/08/16 14:30:41;;;;;;;3.50;2.45;;;;;;;-148.15;100.00;61821.78;4953475;28;20078;-94
2023/08/16 14:33:12;;;;;;;4.35;2.78;;;;;;;-148.15;100.00;61821.78;4962061;29;20012;-93
2023/08/16 14:35:38;;;;;;;3.17;2.63;;;;;;;-148.15;100.00;61821.78;4971803;28;20034;-93
2023/08/16 14:38:03;;;;;;;4.85;2.58;;;;;;;-148.15;100.00;61821.78;4978580;28;20025;-93
2023/08/16 14:40:29;;;;;;;6.20;2.93;;;;;;;-148.15;100.00;61821.78;5003173;28;20050;-94
2023/08/16 14:42:54;;;;;;;4.33;2.73;;;;;;;-148.15;100.00;61821.78;4992663;28;20160;-92
2023/08/16 14:45:20;;;;;;;8.90;2.73;;;;;;;-148.15;100.00;61821.78;5000806;28;20027;-92
2023/08/16 14:47:45;;;;;;;6.05;2.70;;;;;;;-148.15;100.00;61821.78;4998486;28;20105;-93
2023/08/16 14:50:10;;;;;;;4.30;3.13;;;;;;;-148.15;100.00;61821.78;4992534;28;20026;-94
2023/08/16 14:52:36;;;;;;;4.10;2.83;;;;;;;-148.15;100.00;61821.78;4992317;28;20084;-93
2023/08/16 14:55:02;;;;;;;6.55;2.88;;;;;;;-148.15;100.00;61821.78;4990728;28;20030;-93
2023/08/16 14:57:27;;;;;;;5.38;2.47;;;;;;;-148.15;100.00;61821.78;4991986;28;20031;-94
2023/08/16 14:59:53;;;;;;;4.43;2.20;;;;;;;-148.15;100.00;61821.78;4991316;28;20494;-94
2023/08/16 15:02:19;;;;;;;5.47;2.67;;;;;;;-148.15;100.00;61821.78;4992246;28;20034;-94
2023/08/16 15:04:44;;;;;;;6.37;2.93;;;;;;;-148.15;100.00;61821.78;4991818;28;20085;-95
2023/08/16 15:07:09;;;;;;;7.37;2.60;;;;;;;-148.15;100.00;61821.78;4992283;28;20054;-94
2023/08/16 15:09:35;;;;;;;6.70;3.13;;;;;;;-148.15;100.00;61821.78;4991675;28;20022;-94
2023/08/16 15:12:00;;;;;;;4.22;2.50;;;;;;;-148.15;100.00;61821.78;4991745;28;20508;-94
2023/08/16 15:14:25;;;;;;;6.87;2.67;;;;;;;-148.15;100.00;61821.78;4991773;28;20026;-93
2023/08/16 15:16:51;;;;;;;5.27;2.87;;;;;;;-148.15;100.00;61821.78;4990082;28;20450;-94
2023/08/16 15:19:16;;;;;;;4.00;2.20;;;;;;;-148.15;100.00;61821.78;4991622;28;20022;-94
2023/08/16 15:21:43;;;;;;;5.83;2.40;;;;;;;-148.15;100.00;61821.78;4992205;28;20437;-93
2023/08/16 15:24:09;;;;;;;6.80;2.70;;;;;;;-148.15;100.00;61821.78;4991464;28;20113;-94
2023/08/16 15:26:34;;;;;;;5.72;2.42;;;;;;;-148.15;100.00;61821.78;4989815;28;20189;-93
2023/08/16 15:28:59;;;;;;;4.33;2.60;;;;;;;-148.15;100.00;61821.78;4991691;28;20014;-94
2023/08/16 15:31:25;;;;;;;5.17;2.67;;;;;;;-148.15;100.00;61821.78;4991819;28;20033;-93
2023/08/16 15:33:50;;;;;;;4.47;2.70;;;;;;;-148.15;100.00;61821.78;4973374;28;20030;-94
2023/08/16 15:36:16;;;;;;;6.07;2.83;;;;;;;-148.15;100.00;61821.78;4989353;28;20038;-94
2023/08/16 15:38:43;;;;;;;8.03;2.80;;;;;;;-148.15;100.00;61821.78;4990817;28;20022;-93
2023/08/16 15:41:10;;;;;;;3.92;2.80;;;;;;;-148.15;100.00;61821.78;4991456;28;20034;-94
2023/08/16 15:43:37;;;;;;;4.55;2.72;;;;;;;-148.15;100.00;61821.78;4990715;28;20018;-93
2023/08/16 15:46:03;;;;;;;4.47;2.30;;;;;;;-148.15;100.00;61821.78;4983692;28;20398;-92
2023/08/16 15:48:29;;;;;;;4.17;2.47;;;;;;;-148.15;100.00;61821.78;4972216;28;20029;-92
2023/08/16 15:50:56;;;;;;;6.53;2.43;;;;;;;-148.15;100.00;61821.78;4977887;28;20357;-91
2023/08/16 15:53:22;;;;;;;4.07;2.40;;;;;;;-148.15;100.00;61821.78;4972071;28;20081;-92
2023/08/16 15:55:49;;;;;;;4.33;2.33;;;;;;;-148.15;100.00;61821.78;4975053;28;20177;-92
2023/08/16 15:58:14;;;;;;;3.43;2.80;;;;;;;-148.15;100.00;61821.78;5003198;28;20274;-93
2023/08/16 16:00:40;;;;;;;5.57;3.30;;;;;;;-148.15;100.00;61821.78;4996487;28;20033;-92
2023/08/16 16:03:08;;;;;;;4.13;2.90;;;;;;;-148.15;100.00;61821.78;4974139;28;20529;-91
2023/08/16 16:05:36;;;;;;;4.45;2.60;;;;;;;-148.15;100.00;61821.78;5005306;28;20062;-92
2023/08/16 16:08:02;;;;;;;6.63;2.80;;;;;;;-148.15;100.00;61821.78;4984202;28;20042;-92